Terminal Aerodrome Forecast
Issued by NWS Blacksburg, VA

Current Version | Previous Version | Text Only | Print | Product List | Glossary Off
Versions: 1 2 3 4 5 6 7 8 9 10 11 12 13 14 15 16 17 18 19 20 21 22 23 24 25 26 27 28 29 30 31 32 33 34 35 36 37 38 39 40 41 42 43 44

000
FTUS41 KRNK 010147 AAB
TAFBLF
TAF AMD
KBLF 010147Z 0102/0124 30008KT P6SM VCSH SCT012 OVC025
      TEMPO 0102/0104 6SM -SHRA BKN012
     FM010400 30005KT 5SM -SHRA BR OVC020
     FM010700 30004KT 5SM -SHRA BR OVC008
     FM011300 32007KT P6SM VCSH OVC015
     FM011800 32008KT P6SM OVC015=

USA.gov is the U.S. government's official web portal to all federal, state and local government web resources and services.